createdAt,value
2019-04-04T00:00:50.327Z,60.49
2019-04-04T00:03:20.930Z,59.98
2019-04-04T00:05:49.672Z,60.32
2019-04-04T00:08:18.586Z,60.52
2019-04-04T00:10:47.640Z,60.69
2019-04-04T00:13:16.547Z,60.19
2019-04-04T00:15:46.043Z,59.80
2019-04-04T00:18:15.047Z,60.08
2019-04-04T00:20:43.689Z,59.85
2019-04-04T00:23:12.321Z,60.14
2019-04-04T00:25:41.230Z,60.04
2019-04-04T00:28:10.816Z,60.09
2019-04-04T00:30:40.297Z,60.07
2019-04-04T00:33:08.934Z,60.05
2019-04-04T00:35:37.632Z,59.61
2019-04-04T00:38:07.137Z,59.37
2019-04-04T00:40:36.475Z,59.30
2019-04-04T00:43:05.499Z,60.01
2019-04-04T00:45:38.198Z,59.80
2019-04-04T00:48:06.827Z,59.88
2019-04-04T00:50:36.725Z,59.93
2019-04-04T00:53:05.954Z,59.48
2019-04-04T00:55:34.951Z,59.76
2019-04-04T00:58:03.679Z,59.80
2019-04-04T01:00:32.655Z,59.92
2019-04-04T01:03:01.662Z,59.72
2019-04-04T01:05:32.129Z,59.72
2019-04-04T01:08:01.578Z,59.61
2019-04-04T01:10:30.474Z,59.49
2019-04-04T01:12:59.116Z,59.59
2019-04-04T01:15:29.028Z,59.71
2019-04-04T01:17:58.422Z,59.88
2019-04-04T01:20:27.082Z,60.39
2019-04-04T01:22:56.728Z,60.20
2019-04-04T01:25:25.374Z,60.50
2019-04-04T01:27:54.009Z,60.91
2019-04-04T01:30:22.937Z,61.00
2019-04-04T01:32:51.558Z,61.09
2019-04-04T01:35:22.440Z,61.33
2019-04-04T01:37:51.758Z,61.05
2019-04-04T01:40:20.733Z,61.06
2019-04-04T01:42:49.951Z,61.15
2019-04-04T01:45:18.598Z,61.43
2019-04-04T01:47:47.970Z,61.53
2019-04-04T01:50:17.754Z,61.67
2019-04-04T01:52:46.744Z,62.01
2019-04-04T01:55:15.357Z,62.41
2019-04-04T01:57:44.318Z,62.59
2019-04-04T02:00:15.232Z,62.62
2019-04-04T02:02:44.361Z,62.70
2019-04-04T02:05:13.357Z,62.76
2019-04-04T02:07:42.273Z,62.84
2019-04-04T02:10:11.437Z,62.92
2019-04-04T02:12:40.373Z,62.95
2019-04-04T02:15:09.632Z,62.99
2019-04-04T02:17:38.597Z,63.28
2019-04-04T02:20:08.059Z,63.31
2019-04-04T02:22:36.863Z,63.61
2019-04-04T02:25:05.737Z,63.80
2019-04-04T02:27:37.629Z,63.98
2019-04-04T02:30:06.504Z,64.01
2019-04-04T02:32:35.771Z,64.02
2019-04-04T02:35:04.863Z,63.93
2019-04-04T02:37:33.759Z,63.77
2019-04-04T02:40:02.666Z,63.89
2019-04-04T02:42:31.298Z,63.99
2019-04-04T02:45:00.250Z,63.87
2019-04-04T02:47:28.935Z,63.81
2019-04-04T02:50:00.624Z,63.97
2019-04-04T02:52:28.221Z,64.31
2019-04-04T02:54:58.417Z,64.57
2019-04-04T02:57:27.415Z,64.78
2019-04-04T02:59:56.436Z,65.14
2019-04-04T03:02:25.317Z,65.28
2019-04-04T03:04:54.523Z,65.54
2019-04-04T03:07:23.503Z,65.18
2019-04-04T03:09:52.526Z,64.94
2019-04-04T03:12:21.188Z,65.04
2019-04-04T03:14:50.826Z,65.78
2019-04-04T03:17:19.629Z,65.97
2019-04-04T03:19:48.891Z,65.52
2019-04-04T03:22:17.901Z,65.41
2019-04-04T03:24:46.782Z,65.48
2019-04-04T03:27:15.403Z,65.54
2019-04-04T03:29:44.361Z,65.97
2019-04-04T03:32:14.426Z,66.01
2019-04-04T03:34:49.768Z,66.20
2019-04-04T03:37:14.022Z,66.09
2019-04-04T03:39:42.996Z,66.22
2019-04-04T03:42:11.682Z,66.04
2019-04-04T03:44:40.286Z,66.17
2019-04-04T03:47:10.577Z,66.18
2019-04-04T03:49:39.960Z,66.38
2019-04-04T03:52:11.302Z,66.58
2019-04-04T03:54:39.314Z,66.59
2019-04-04T03:57:11.113Z,66.21
2019-04-04T03:59:38.351Z,66.29
2019-04-04T04:02:07.423Z,66.73
2019-04-04T04:04:36.312Z,66.97
2019-04-04T04:07:05.202Z,67.18
2019-04-04T04:09:34.157Z,67.23
2019-04-04T04:12:03.434Z,67.48
2019-04-04T04:14:32.695Z,67.55
2019-04-04T04:17:02.009Z,67.68
2019-04-04T04:19:31.467Z,67.84
2019-04-04T04:22:00.528Z,67.98
2019-04-04T04:24:30.327Z,68.34
2019-04-04T04:26:59.309Z,68.19
2019-04-04T04:29:29.878Z,67.99
2019-04-04T04:31:58.610Z,68.11
2019-04-04T04:34:27.479Z,68.22
2019-04-04T04:36:56.411Z,68.17
2019-04-04T04:39:25.309Z,67.98
2019-04-04T04:41:54.454Z,67.98
2019-04-04T04:44:23.133Z,68.16
2019-04-04T04:46:52.076Z,68.21
2019-04-04T04:49:23.298Z,68.55
2019-04-04T04:51:51.406Z,68.51
2019-04-04T04:54:22.685Z,68.51
2019-04-04T04:56:51.017Z,68.72
2019-04-04T04:59:19.906Z,69.39
2019-04-04T05:01:50.548Z,69.39
2019-04-04T05:04:19.597Z,69.25
2019-04-04T05:06:48.227Z,69.25
2019-04-04T05:09:17.445Z,69.27
2019-04-04T05:11:48.087Z,68.53
2019-04-04T05:14:17.901Z,68.47
2019-04-04T05:16:46.860Z,68.42
2019-04-04T05:19:17.106Z,68.54
2019-04-04T05:21:46.587Z,68.68
2019-04-04T05:24:16.053Z,68.31
2019-04-04T05:26:45.585Z,68.36
2019-04-04T05:29:14.523Z,68.26
2019-04-04T05:31:43.114Z,68.30
2019-04-04T05:34:12.375Z,67.89
2019-04-04T05:36:41.574Z,67.59
2019-04-04T05:39:10.261Z,67.44
2019-04-04T05:41:38.893Z,67.17
2019-04-04T05:44:10.031Z,67.13
2019-04-04T05:46:38.572Z,67.15
2019-04-04T05:49:08.294Z,67.06
2019-04-04T05:51:37.165Z,66.85
2019-04-04T05:54:07.619Z,66.57
2019-04-04T05:56:36.431Z,66.47
2019-04-04T05:59:05.192Z,66.20
2019-04-04T06:01:35.334Z,66.16
2019-04-04T06:04:04.331Z,65.84
2019-04-04T06:06:33.454Z,65.52
2019-04-04T06:09:04.493Z,65.26
2019-04-04T06:11:33.080Z,65.35
2019-04-04T06:14:02.321Z,65.17
2019-04-04T06:16:30.933Z,65.09
2019-04-04T06:18:59.902Z,64.75
2019-04-04T06:21:28.569Z,64.88
2019-04-04T06:23:57.470Z,64.59
2019-04-04T06:26:26.579Z,64.28
2019-04-04T06:28:55.562Z,64.04
2019-04-04T06:31:26.519Z,63.78
2019-04-04T06:33:55.190Z,63.80
2019-04-04T06:36:23.855Z,63.55
2019-04-04T06:38:53.981Z,63.55
2019-04-04T06:41:23.498Z,63.55
2019-04-04T06:43:52.394Z,63.63
2019-04-04T06:46:22.886Z,63.78
2019-04-04T06:48:51.608Z,63.69
2019-04-04T06:51:20.627Z,64.03
2019-04-04T06:53:53.314Z,63.85
2019-04-04T06:56:20.538Z,63.49
2019-04-04T06:58:49.428Z,63.03
2019-04-04T07:01:20.927Z,63.00
2019-04-04T07:03:48.406Z,61.97
2019-04-04T07:06:17.049Z,61.92
2019-04-04T07:08:46.792Z,61.49
2019-04-04T07:11:21.511Z,61.49
2019-04-04T07:13:47.389Z,61.42
2019-04-04T07:16:16.377Z,61.09
2019-04-04T07:18:45.674Z,61.00
2019-04-04T07:21:14.568Z,60.97
2019-04-04T07:23:43.202Z,60.82
2019-04-04T07:26:14.817Z,60.67
2019-04-04T07:28:42.478Z,60.61
2019-04-04T07:31:11.567Z,60.19
2019-04-04T07:33:42.588Z,59.90
2019-04-04T07:36:11.197Z,60.01
2019-04-04T07:38:39.846Z,59.99
2019-04-04T07:41:09.169Z,59.96
2019-04-04T07:43:39.414Z,59.64
2019-04-04T07:46:16.123Z,59.42
2019-04-04T07:48:38.731Z,59.19
2019-04-04T07:51:07.717Z,58.69
2019-04-04T07:53:37.054Z,58.83
2019-04-04T07:56:06.845Z,58.70
2019-04-04T07:58:35.489Z,58.35
2019-04-04T08:01:04.521Z,58.49
2019-04-04T08:03:33.140Z,58.07
2019-04-04T08:06:02.104Z,57.27
2019-04-04T08:08:31.388Z,57.47
2019-04-04T08:11:00.353Z,57.86
2019-04-04T08:13:28.987Z,57.80
2019-04-04T08:15:57.660Z,57.21
2019-04-04T08:18:29.327Z,57.17
2019-04-04T08:20:57.981Z,56.94
2019-04-04T08:23:26.870Z,57.38
2019-04-04T08:25:55.491Z,57.42
2019-04-04T08:28:24.464Z,56.54
2019-04-04T08:30:53.098Z,56.07
2019-04-04T08:33:22.040Z,54.80
2019-04-04T08:35:50.933Z,54.91
2019-04-04T08:38:20.386Z,54.27
2019-04-04T08:40:49.087Z,53.56
2019-04-04T08:43:18.024Z,53.98
2019-04-04T08:45:47.018Z,53.92
2019-04-04T08:48:16.002Z,54.27
2019-04-04T08:50:45.305Z,54.05
2019-04-04T08:53:13.916Z,54.01
2019-04-04T08:55:43.188Z,53.08
2019-04-04T08:58:12.799Z,52.88
2019-04-04T09:00:42.099Z,52.35
2019-04-04T09:03:11.024Z,52.38
2019-04-04T09:05:39.988Z,52.30
2019-04-04T09:08:09.283Z,52.02
2019-04-04T09:10:38.278Z,51.10
2019-04-04T09:13:07.481Z,50.58
2019-04-04T09:15:36.470Z,50.88
2019-04-04T09:18:05.201Z,50.33
2019-04-04T09:20:33.819Z,49.76
2019-04-04T09:23:02.434Z,49.98
2019-04-04T09:25:31.422Z,49.78
2019-04-04T09:28:00.330Z,48.75
2019-04-04T09:30:29.409Z,47.80
2019-04-04T09:32:58.404Z,46.99
2019-04-04T09:35:27.122Z,46.83
2019-04-04T09:37:55.765Z,46.08
2019-04-04T09:40:24.668Z,45.18
2019-04-04T09:42:53.968Z,45.32
2019-04-04T09:45:22.973Z,45.35
2019-04-04T09:47:51.942Z,46.64
2019-04-04T09:50:20.563Z,46.46
2019-04-04T09:52:49.841Z,45.31
2019-04-04T09:55:18.833Z,44.79
2019-04-04T09:57:48.136Z,47.20
2019-04-04T10:00:18.543Z,45.97
2019-04-04T10:02:47.764Z,45.57
2019-04-04T10:05:16.754Z,45.84
2019-04-04T10:07:45.747Z,43.42
2019-04-04T10:10:16.665Z,44.13
2019-04-04T10:12:45.686Z,40.95
2019-04-04T10:15:14.473Z,41.47
2019-04-04T10:17:43.975Z,44.17
2019-04-04T10:20:13.074Z,44.80
2019-04-04T10:22:42.075Z,45.16
2019-04-04T10:25:10.869Z,44.98
2019-04-04T10:27:39.853Z,44.98
2019-04-04T10:30:09.105Z,45.55
2019-04-04T10:32:38.040Z,45.06
2019-04-04T10:35:06.787Z,44.41
2019-04-04T10:37:35.721Z,44.61
2019-04-04T10:40:05.177Z,42.95
2019-04-04T10:42:34.117Z,42.60
2019-04-04T10:45:02.753Z,41.96
2019-04-04T10:47:31.395Z,42.21
2019-04-04T10:50:00.382Z,41.54
2019-04-04T10:52:29.276Z,41.80
2019-04-04T10:55:01.323Z,41.94
2019-04-04T10:57:29.104Z,41.06
2019-04-04T10:59:58.086Z,40.32
2019-04-04T11:02:26.729Z,41.12
2019-04-04T11:04:55.675Z,42.41
2019-04-04T11:07:24.659Z,43.54
2019-04-04T11:09:53.282Z,44.37
2019-04-04T11:12:21.960Z,43.73
2019-04-04T11:14:50.939Z,44.70
2019-04-04T11:17:19.826Z,44.61
2019-04-04T11:19:48.824Z,43.47
2019-04-04T11:22:17.712Z,43.30
2019-04-04T11:24:46.908Z,42.62
2019-04-04T11:27:17.481Z,42.31
2019-04-04T11:29:46.534Z,42.34
2019-04-04T11:32:15.546Z,39.79
2019-04-04T11:34:53.173Z,38.55
2019-04-04T11:37:14.966Z,39.73
2019-04-04T11:39:54.055Z,37.92
2019-04-04T11:42:14.271Z,37.28
2019-04-04T11:44:42.902Z,36.05
2019-04-04T11:47:12.156Z,40.12
2019-04-04T11:49:41.044Z,39.60
2019-04-04T11:52:10.038Z,40.26
2019-04-04T11:54:57.230Z,41.08
2019-04-04T11:57:26.258Z,38.51
2019-04-04T11:59:54.950Z,39.07
2019-04-04T12:02:24.121Z,38.38
2019-04-04T12:04:52.847Z,39.10
2019-04-04T12:07:21.471Z,39.01
2019-04-04T12:09:50.202Z,38.88
2019-04-04T12:12:18.905Z,36.01
2019-04-04T12:14:47.525Z,35.74
2019-04-04T12:17:16.493Z,37.50
2019-04-04T12:19:45.135Z,37.31
2019-04-04T12:22:14.040Z,37.86
2019-04-04T12:24:42.673Z,37.13
2019-04-04T12:27:11.928Z,37.03
2019-04-04T12:29:41.231Z,37.07
2019-04-04T12:32:10.128Z,36.05
2019-04-04T12:34:39.418Z,36.06
2019-04-04T12:37:08.402Z,36.26
2019-04-04T12:39:37.407Z,37.48
2019-04-04T12:42:06.114Z,37.12
2019-04-04T12:44:35.087Z,38.00
2019-04-04T12:47:04.084Z,36.54
2019-04-04T12:49:32.706Z,36.22
2019-04-04T12:52:01.666Z,36.19
2019-04-04T12:54:30.312Z,36.13
2019-04-04T12:56:59.257Z,35.37
2019-04-04T12:59:28.229Z,36.70
2019-04-04T13:01:57.533Z,37.60
2019-04-04T13:04:31.663Z,35.86
2019-04-04T13:06:57.158Z,35.85
2019-04-04T13:09:26.155Z,34.68
2019-04-04T13:11:54.799Z,35.33
2019-04-04T13:14:23.583Z,37.13
2019-04-04T13:16:52.830Z,36.82
2019-04-04T13:19:21.717Z,37.24
2019-04-04T13:21:50.358Z,36.78
2019-04-04T13:24:19.912Z,36.14
2019-04-04T13:26:48.893Z,36.52
2019-04-04T13:29:17.826Z,36.64
2019-04-04T13:31:46.450Z,37.02
2019-04-04T13:34:15.374Z,35.77
2019-04-04T13:36:44.023Z,35.85
2019-04-04T13:39:12.659Z,34.48
2019-04-04T13:41:41.294Z,32.95
2019-04-04T13:44:10.336Z,35.33
2019-04-04T13:46:39.333Z,35.49
2019-04-04T13:49:08.625Z,36.64
2019-04-04T13:51:37.342Z,36.83
2019-04-04T13:54:05.989Z,36.13
2019-04-04T13:56:34.724Z,37.12
2019-04-04T13:59:05.926Z,37.16
2019-04-04T14:01:34.130Z,37.42
2019-04-04T14:04:03.080Z,38.06
2019-04-04T14:06:32.097Z,38.13
2019-04-04T14:09:01.391Z,39.15
2019-04-04T14:11:30.688Z,39.55
2019-04-04T14:13:59.581Z,39.43
2019-04-04T14:16:28.190Z,39.86
2019-04-04T14:18:57.463Z,39.45
2019-04-04T14:21:26.111Z,39.78
2019-04-04T14:23:56.843Z,40.16
2019-04-04T14:26:25.478Z,39.11
2019-04-04T14:28:54.133Z,38.84
2019-04-04T14:31:23.057Z,38.77
2019-04-04T14:33:51.660Z,38.34
2019-04-04T14:36:20.624Z,38.09
2019-04-04T14:38:49.508Z,38.50
2019-04-04T14:41:18.512Z,38.37
2019-04-04T14:43:47.400Z,37.55
2019-04-04T14:46:18.550Z,38.07
2019-04-04T14:48:47.200Z,37.85
2019-04-04T14:51:16.541Z,37.61
2019-04-04T14:53:45.158Z,37.53
2019-04-04T14:56:14.741Z,37.68
2019-04-04T14:58:43.708Z,37.84
2019-04-04T15:01:13.326Z,38.77
2019-04-04T15:03:42.423Z,37.98
2019-04-04T15:06:11.508Z,38.67
2019-04-04T15:08:40.721Z,39.14
2019-04-04T15:11:09.349Z,38.42
2019-04-04T15:13:37.995Z,38.36
2019-04-04T15:16:16.877Z,37.91
2019-04-04T15:18:46.420Z,38.99
2019-04-04T15:21:16.161Z,39.26
2019-04-04T15:23:45.128Z,38.31
2019-04-04T15:26:14.018Z,37.73
2019-04-04T15:28:43.336Z,38.35
2019-04-04T15:31:12.323Z,38.72
2019-04-04T15:33:41.613Z,39.35
2019-04-04T15:36:10.226Z,38.63
2019-04-04T15:38:39.308Z,38.52
2019-04-04T15:41:08.287Z,38.51
2019-04-04T15:43:37.709Z,38.01
2019-04-04T15:46:06.684Z,39.33
2019-04-04T15:48:35.322Z,39.88
2019-04-04T15:51:04.570Z,38.91
2019-04-04T15:53:33.177Z,38.30
2019-04-04T15:56:01.805Z,38.24
2019-04-04T15:58:30.456Z,38.41
2019-04-04T16:00:59.082Z,38.51
2019-04-04T16:03:28.310Z,39.19
2019-04-04T16:05:57.199Z,37.50
2019-04-04T16:08:26.094Z,37.45
2019-04-04T16:10:55.019Z,38.39
2019-04-04T16:13:23.974Z,38.28
2019-04-04T16:15:52.964Z,37.99
2019-04-04T16:18:21.861Z,37.44
2019-04-04T16:20:50.512Z,37.91
2019-04-04T16:23:19.150Z,38.25
2019-04-04T16:25:48.329Z,39.90
2019-04-04T16:28:17.324Z,39.75
2019-04-04T16:30:46.210Z,39.87
2019-04-04T16:33:15.107Z,40.33
2019-04-04T16:35:44.113Z,40.54
2019-04-04T16:38:12.838Z,41.61
2019-04-04T16:40:41.426Z,42.32
2019-04-04T16:43:10.396Z,42.51
2019-04-04T16:45:39.366Z,43.33
2019-04-04T16:48:07.986Z,43.07
2019-04-04T16:50:36.938Z,43.69
2019-04-04T16:53:05.932Z,44.07
2019-04-04T16:55:34.801Z,44.31
2019-04-04T16:58:03.448Z,44.81
2019-04-04T17:00:32.297Z,44.46
2019-04-04T17:03:01.197Z,44.58
2019-04-04T17:05:30.284Z,44.21
2019-04-04T17:07:59.181Z,43.85
2019-04-04T17:10:28.367Z,43.97
2019-04-04T17:12:57.372Z,44.51
2019-04-04T17:15:26.518Z,44.76
2019-04-04T17:17:55.470Z,44.81
2019-04-04T17:20:24.454Z,44.87
2019-04-04T17:22:53.450Z,45.14
2019-04-04T17:25:22.338Z,45.46
2019-04-04T17:27:51.538Z,46.49
2019-04-04T17:30:20.867Z,47.05
2019-04-04T17:32:50.310Z,47.50
2019-04-04T17:35:19.253Z,47.59
2019-04-04T17:37:48.127Z,47.85
2019-04-04T17:40:18.295Z,47.84
2019-04-04T17:42:47.531Z,48.09
2019-04-04T17:45:16.551Z,48.43
2019-04-04T17:47:45.290Z,48.94
2019-04-04T17:50:17.589Z,49.60
2019-04-04T17:52:45.159Z,49.28
2019-04-04T17:55:14.568Z,49.88
2019-04-04T17:57:43.577Z,50.71
2019-04-04T18:00:13.268Z,51.13
2019-04-04T18:02:41.920Z,51.97
2019-04-04T18:05:10.641Z,52.47
2019-04-04T18:07:39.576Z,53.10
2019-04-04T18:10:08.599Z,53.50
2019-04-04T18:12:40.617Z,54.08
2019-04-04T18:15:08.360Z,54.61
2019-04-04T18:17:37.042Z,55.24
2019-04-04T18:20:06.828Z,55.48
2019-04-04T18:22:35.784Z,55.91
2019-04-04T18:25:04.974Z,56.52
2019-04-04T18:27:33.918Z,57.03
2019-04-04T18:30:02.550Z,57.22
2019-04-04T18:32:31.525Z,57.32
2019-04-04T18:35:00.529Z,57.63
2019-04-04T18:37:29.187Z,58.27
2019-04-04T18:39:57.790Z,58.29
2019-04-04T18:42:26.774Z,58.41
2019-04-04T18:44:55.455Z,58.60
2019-04-04T18:47:24.607Z,58.71
2019-04-04T18:49:53.555Z,58.92
2019-04-04T18:52:22.547Z,58.77
2019-04-04T18:54:51.542Z,58.36
2019-04-04T18:57:20.438Z,58.78
2019-04-04T18:59:49.084Z,58.85
2019-04-04T19:02:18.424Z,59.36
2019-04-04T19:04:47.843Z,59.37
2019-04-04T19:07:16.491Z,58.94
2019-04-04T19:09:45.215Z,59.21
2019-04-04T19:12:14.499Z,59.28
2019-04-04T19:14:43.397Z,59.31
2019-04-04T19:17:12.282Z,59.84
2019-04-04T19:19:40.919Z,59.77
2019-04-04T19:22:10.274Z,60.45
2019-04-04T19:24:38.950Z,60.35
2019-04-04T19:27:08.355Z,60.76
2019-04-04T19:29:37.255Z,60.29
2019-04-04T19:32:05.958Z,60.24
2019-04-04T19:34:35.133Z,59.94
2019-04-04T19:37:03.767Z,60.25
2019-04-04T19:39:32.422Z,60.12
2019-04-04T19:42:01.494Z,60.29
2019-04-04T19:44:30.698Z,60.39
2019-04-04T19:46:59.691Z,60.81
2019-04-04T19:49:28.892Z,61.53
2019-04-04T19:51:57.781Z,61.83
2019-04-04T19:54:26.773Z,61.58
2019-04-04T19:56:56.180Z,61.54
2019-04-04T19:59:24.822Z,62.34
2019-04-04T20:01:53.766Z,62.30
2019-04-04T20:04:22.687Z,62.30
2019-04-04T20:06:51.641Z,62.23
2019-04-04T20:09:20.537Z,62.67
2019-04-04T20:11:49.527Z,62.47
2019-04-04T20:14:18.731Z,62.13
2019-04-04T20:16:47.621Z,62.34
2019-04-04T20:19:16.725Z,62.15
2019-04-04T20:21:45.698Z,62.59
2019-04-04T20:24:14.750Z,62.71
2019-04-04T20:26:43.405Z,62.46
2019-04-04T20:29:12.390Z,63.01
2019-04-04T20:31:41.684Z,63.35
2019-04-04T20:34:10.326Z,62.93
2019-04-04T20:36:38.967Z,63.30
2019-04-04T20:39:07.987Z,63.08
2019-04-04T20:41:36.603Z,63.14
2019-04-04T20:44:05.625Z,63.42
2019-04-04T20:46:34.306Z,63.74
2019-04-04T20:49:02.992Z,63.85
2019-04-04T20:51:31.716Z,64.13
2019-04-04T20:54:00.682Z,63.16
2019-04-04T20:56:29.678Z,62.85
2019-04-04T20:58:58.283Z,63.73
2019-04-04T21:01:27.257Z,63.66
2019-04-04T21:03:55.897Z,63.49
2019-04-04T21:06:24.829Z,63.77
2019-04-04T21:08:53.480Z,64.29
2019-04-04T21:11:22.106Z,64.25
2019-04-04T21:13:56.499Z,64.75
2019-04-04T21:16:21.411Z,65.19
2019-04-04T21:18:50.304Z,66.35
2019-04-04T21:21:18.955Z,66.42
2019-04-04T21:23:48.196Z,65.88
2019-04-04T21:26:17.087Z,65.71
2019-04-04T21:28:46.091Z,65.88
2019-04-04T21:31:14.713Z,65.57
2019-04-04T21:33:43.662Z,65.09
2019-04-04T21:36:12.657Z,65.40
2019-04-04T21:38:41.555Z,65.15
2019-04-04T21:41:10.540Z,65.33
2019-04-04T21:43:39.754Z,64.99
2019-04-04T21:46:08.738Z,64.92
2019-04-04T21:48:38.037Z,65.52
2019-04-04T21:51:06.760Z,65.16
2019-04-04T21:53:35.711Z,65.71
2019-04-04T21:56:04.720Z,66.23
2019-04-04T21:58:34.012Z,66.16
2019-04-04T22:01:02.941Z,64.88
2019-04-04T22:03:31.894Z,65.37
2019-04-04T22:06:00.956Z,65.24
2019-04-04T22:08:29.879Z,65.43
2019-04-04T22:10:58.552Z,64.90
2019-04-04T22:13:27.767Z,64.94
2019-04-04T22:15:56.657Z,64.95
2019-04-04T22:18:25.594Z,65.10
2019-04-04T22:20:54.541Z,65.36
2019-04-04T22:23:23.535Z,64.86
2019-04-04T22:25:52.427Z,65.56
2019-04-04T22:28:21.318Z,64.15
2019-04-04T22:30:49.937Z,64.48
2019-04-04T22:33:18.608Z,64.39
2019-04-04T22:35:47.208Z,64.85
2019-04-04T22:38:16.164Z,64.46
2019-04-04T22:40:45.370Z,64.26
2019-04-04T22:43:14.007Z,64.72
2019-04-04T22:45:43.247Z,64.68
2019-04-04T22:48:12.552Z,64.23
2019-04-04T22:50:41.193Z,64.00
2019-04-04T22:53:10.437Z,64.25
2019-04-04T22:55:39.061Z,64.32
2019-04-04T22:58:08.002Z,64.13
2019-04-04T23:00:36.904Z,63.99
2019-04-04T23:03:07.342Z,63.40
2019-04-04T23:05:36.224Z,63.37
2019-04-04T23:08:07.537Z,63.60
2019-04-04T23:10:35.598Z,63.51
2019-04-04T23:13:04.851Z,63.33
2019-04-04T23:15:33.476Z,63.54
2019-04-04T23:18:02.526Z,63.12
2019-04-04T23:20:31.150Z,62.96
2019-04-04T23:23:01.330Z,62.59
2019-04-04T23:25:30.426Z,62.58
2019-04-04T23:27:59.045Z,62.24
2019-04-04T23:30:27.700Z,62.27
2019-04-04T23:32:56.700Z,62.31
2019-04-04T23:35:25.652Z,62.04
2019-04-04T23:37:54.576Z,62.45
2019-04-04T23:40:23.571Z,62.64
2019-04-04T23:42:52.466Z,62.95
2019-04-04T23:45:21.469Z,62.54
2019-04-04T23:47:50.119Z,62.67
2019-04-04T23:50:19.153Z,62.45
2019-04-04T23:52:48.335Z,62.11
2019-04-04T23:55:16.988Z,61.81
2019-04-04T23:57:46.507Z,61.63
